createdAt,value
2022-10-09T00:00:22.765Z,7.25
2022-10-09T00:03:24.963Z,7.20
2022-10-09T00:06:30.945Z,6.90
2022-10-09T00:09:36.261Z,6.53
2022-10-09T00:12:38.542Z,7.13
2022-10-09T00:15:42.540Z,7.18
2022-10-09T00:18:44.766Z,6.50
2022-10-09T00:21:46.882Z,6.88
2022-10-09T00:24:49.216Z,7.15
2022-10-09T00:27:51.343Z,7.32
2022-10-09T00:30:54.190Z,6.50
2022-10-09T00:33:56.752Z,7.43
2022-10-09T00:36:58.850Z,7.50
2022-10-09T00:40:01.074Z,7.63
2022-10-09T00:43:04.747Z,7.32
2022-10-09T00:46:09.539Z,7.85
2022-10-09T00:49:34.420Z,7.40
2022-10-09T00:52:36.752Z,7.20
2022-10-09T00:55:39.975Z,7.97
2022-10-09T00:58:42.224Z,7.03
2022-10-09T01:01:44.717Z,7.65
2022-10-09T01:04:47.139Z,8.20
2022-10-09T01:08:14.763Z,8.07
2022-10-09T01:11:35.493Z,7.43
2022-10-09T01:14:48.977Z,8.40
2022-10-09T01:18:04.765Z,8.07
2022-10-09T01:21:21.024Z,7.82
2022-10-09T01:24:32.399Z,8.43
2022-10-09T01:27:36.223Z,8.15
2022-10-09T01:30:38.817Z,8.75
2022-10-09T01:33:41.665Z,8.45
2022-10-09T01:36:45.082Z,7.97
2022-10-09T01:39:49.363Z,8.50
2022-10-09T01:42:52.076Z,7.90
2022-10-09T01:46:19.022Z,8.07
2022-10-09T01:49:41.330Z,8.27
2022-10-09T01:53:19.361Z,9.77
2022-10-09T01:56:23.118Z,9.23
2022-10-09T01:59:27.356Z,9.55
2022-10-09T02:02:29.778Z,9.35
2022-10-09T02:05:32.753Z,10.43
2022-10-09T02:08:38.845Z,8.82
2022-10-09T02:11:43.533Z,9.77
2022-10-09T02:14:45.967Z,10.45
2022-10-09T02:17:50.579Z,9.75
2022-10-09T02:20:59.528Z,10.88
2022-10-09T02:24:03.302Z,8.70
2022-10-09T02:27:06.544Z,10.02
2022-10-09T02:30:10.961Z,9.88
2022-10-09T02:33:13.104Z,10.23
2022-10-09T02:36:15.357Z,11.48
2022-10-09T02:39:18.324Z,9.98
2022-10-09T02:42:20.542Z,11.07
2022-10-09T02:45:23.053Z,10.02
2022-10-09T02:48:25.276Z,9.07
2022-10-09T02:51:27.682Z,10.00
2022-10-09T02:54:29.937Z,10.32
2022-10-09T02:57:32.101Z,10.73
2022-10-09T03:00:34.178Z,10.68
2022-10-09T03:03:36.460Z,10.63
2022-10-09T03:06:38.627Z,10.35
2022-10-09T03:09:40.771Z,10.05
2022-10-09T03:12:42.869Z,10.45
2022-10-09T03:15:44.960Z,9.18
2022-10-09T03:18:48.495Z,9.90
2022-10-09T03:21:50.644Z,11.48
2022-10-09T03:24:52.774Z,10.85
2022-10-09T03:27:54.893Z,10.68
2022-10-09T03:30:57.248Z,9.35
2022-10-09T03:33:59.387Z,11.50
2022-10-09T03:37:01.496Z,10.50
2022-10-09T03:40:04.395Z,9.70
2022-10-09T03:43:07.120Z,10.65
2022-10-09T03:46:10.831Z,10.70
2022-10-09T03:49:13.450Z,10.30
2022-10-09T03:52:15.553Z,11.60
2022-10-09T03:55:17.748Z,11.00
2022-10-09T03:58:19.849Z,9.85
2022-10-09T04:01:22.071Z,10.95
2022-10-09T04:04:24.354Z,11.15
2022-10-09T04:07:26.463Z,10.98
2022-10-09T04:10:28.708Z,12.10
2022-10-09T04:13:31.033Z,12.10
2022-10-09T04:16:33.224Z,10.30
2022-10-09T04:19:36.385Z,10.13
2022-10-09T04:22:38.718Z,10.75
2022-10-09T04:25:40.899Z,10.35
2022-10-09T04:28:43.745Z,9.18
2022-10-09T04:31:46.210Z,10.40
2022-10-09T04:34:48.448Z,9.98
2022-10-09T04:37:50.703Z,9.98
2022-10-09T04:41:00.829Z,9.73
2022-10-09T04:47:08.132Z,9.82
2022-10-09T04:50:12.685Z,10.60
2022-10-09T04:53:15.217Z,8.98
2022-10-09T04:56:20.235Z,10.38
2022-10-09T04:59:22.404Z,9.38
2022-10-09T05:02:24.628Z,10.82
2022-10-09T05:05:26.829Z,9.57
2022-10-09T05:08:30.428Z,10.35
2022-10-09T05:11:32.620Z,8.65
2022-10-09T05:14:34.749Z,9.95
2022-10-09T05:17:36.922Z,9.20
2022-10-09T05:20:42.393Z,9.10
2022-10-09T05:23:45.373Z,8.00
2022-10-09T05:26:47.585Z,9.05
2022-10-09T05:29:49.806Z,8.10
2022-10-09T05:32:52.199Z,8.73
2022-10-09T05:35:59.750Z,8.93
2022-10-09T05:39:02.172Z,7.88
2022-10-09T05:42:04.896Z,8.05
2022-10-09T05:45:08.615Z,7.78
2022-10-09T05:48:10.735Z,8.07
2022-10-09T05:51:16.862Z,8.48
2022-10-09T05:54:19.011Z,7.70
2022-10-09T05:57:21.172Z,6.53
2022-10-09T06:00:23.249Z,9.13
2022-10-09T06:03:25.446Z,7.63
2022-10-09T06:06:30.727Z,8.48
2022-10-09T06:09:32.914Z,8.40
2022-10-09T06:12:35.607Z,8.45
2022-10-09T06:15:37.729Z,9.05
2022-10-09T06:18:49.121Z,8.25
2022-10-09T06:21:52.017Z,7.78
2022-10-09T06:24:54.190Z,8.63
2022-10-09T06:27:56.357Z,8.45
2022-10-09T06:31:16.044Z,8.45
2022-10-09T06:34:18.397Z,8.07
2022-10-09T06:37:20.613Z,9.57
2022-10-09T06:40:22.836Z,10.27
2022-10-09T06:43:25.049Z,9.52
2022-10-09T06:46:30.987Z,8.93
2022-10-09T06:49:33.384Z,10.65
2022-10-09T06:52:35.461Z,9.88
2022-10-09T06:55:37.576Z,10.70
2022-10-09T06:58:40.608Z,10.10
2022-10-09T07:01:42.907Z,10.18
2022-10-09T07:04:46.973Z,10.68
2022-10-09T07:07:49.124Z,11.32
2022-10-09T07:10:51.294Z,10.93
2022-10-09T07:13:56.334Z,10.82
2022-10-09T07:16:58.531Z,11.10
2022-10-09T07:20:00.701Z,10.70
2022-10-09T07:23:03.327Z,10.80
2022-10-09T07:26:17.411Z,10.35
2022-10-09T07:29:20.133Z,11.60
2022-10-09T07:32:22.368Z,11.77
2022-10-09T07:35:24.638Z,10.35
2022-10-09T07:38:27.580Z,10.32
2022-10-09T07:41:30.046Z,11.23
2022-10-09T07:44:32.328Z,12.13
2022-10-09T07:47:34.470Z,13.65
2022-10-09T07:50:36.894Z,11.00
2022-10-09T07:53:39.329Z,12.27
2022-10-09T07:56:41.480Z,11.73
2022-10-09T07:59:43.635Z,12.45
2022-10-09T08:02:46.091Z,11.63
2022-10-09T08:05:55.907Z,12.10
2022-10-09T08:09:00.287Z,12.98
2022-10-09T08:12:02.367Z,12.13
2022-10-09T08:15:04.931Z,11.95
2022-10-09T08:18:06.984Z,10.25
2022-10-09T08:21:13.095Z,12.10
2022-10-09T08:24:15.246Z,12.55
2022-10-09T08:27:17.404Z,8.52
2022-10-09T08:30:19.739Z,10.63
2022-10-09T08:33:25.009Z,10.20
2022-10-09T08:36:28.005Z,9.98
2022-10-09T08:39:31.244Z,10.40
2022-10-09T08:42:51.711Z,8.50
2022-10-09T08:45:55.036Z,6.40
2022-10-09T08:48:58.534Z,8.25
2022-10-09T08:52:28.011Z,6.88
2022-10-09T08:55:37.007Z,8.13
2022-10-09T08:58:41.413Z,8.20
2022-10-09T09:01:58.172Z,5.95
2022-10-09T09:05:29.661Z,6.22
2022-10-09T09:08:38.174Z,5.88
2022-10-09T09:12:06.731Z,5.70
2022-10-09T09:15:14.711Z,5.93
2022-10-09T09:18:26.972Z,5.30
2022-10-09T09:21:41.095Z,4.85
2022-10-09T09:24:53.495Z,4.53
2022-10-09T09:28:00.065Z,4.70
2022-10-09T09:31:14.270Z,4.95
2022-10-09T09:34:40.511Z,3.60
2022-10-09T09:37:42.768Z,4.13
2022-10-09T09:40:47.197Z,3.95
2022-10-09T09:43:49.918Z,4.03
2022-10-09T09:46:53.067Z,3.50
2022-10-09T09:50:01.059Z,4.97
2022-10-09T09:53:13.135Z,3.88
2022-10-09T09:56:16.623Z,4.68
2022-10-09T09:59:43.324Z,3.65
2022-10-09T10:02:45.594Z,3.50
2022-10-09T10:05:48.267Z,5.05
2022-10-09T10:09:00.482Z,4.72
2022-10-09T10:12:04.078Z,5.00
2022-10-09T10:15:06.639Z,5.32
2022-10-09T10:18:16.205Z,5.10
2022-10-09T10:21:20.209Z,5.07
2022-10-09T10:24:31.848Z,5.70
2022-10-09T10:27:42.697Z,5.63
2022-10-09T10:30:45.737Z,5.53
2022-10-09T10:33:54.918Z,5.72
2022-10-09T10:37:07.300Z,5.97
2022-10-09T10:40:18.119Z,4.45
2022-10-09T10:43:23.392Z,5.32
2022-10-09T10:46:52.539Z,5.30
2022-10-09T10:49:54.844Z,5.10
2022-10-09T10:53:38.084Z,4.95
2022-10-09T10:57:01.405Z,4.80
2022-10-09T11:00:09.859Z,5.28
2022-10-09T11:03:17.890Z,4.63
2022-10-09T11:06:23.106Z,4.75
2022-10-09T11:09:35.147Z,4.32
2022-10-09T11:12:48.733Z,4.55
2022-10-09T11:16:28.410Z,4.38
2022-10-09T11:19:45.395Z,4.57
2022-10-09T11:23:06.018Z,4.00
2022-10-09T11:26:25.298Z,3.83
2022-10-09T11:29:37.358Z,4.20
2022-10-09T11:32:52.647Z,3.70
2022-10-09T11:36:16.844Z,3.42
2022-10-09T11:39:26.008Z,4.35
2022-10-09T11:42:29.422Z,3.93
2022-10-09T11:45:51.462Z,3.58
2022-10-09T11:48:59.423Z,3.78
2022-10-09T11:52:15.901Z,4.07
2022-10-09T11:55:24.927Z,3.55
2022-10-09T11:58:27.077Z,3.72
2022-10-09T12:01:37.119Z,3.40
2022-10-09T12:04:55.667Z,3.72
2022-10-09T12:08:08.539Z,3.28
2022-10-09T12:11:17.043Z,3.75
2022-10-09T12:14:25.657Z,3.20
2022-10-09T12:17:27.919Z,3.65
2022-10-09T12:20:30.657Z,3.40
2022-10-09T12:23:36.048Z,3.40
2022-10-09T12:26:40.269Z,3.22
2022-10-09T12:29:47.977Z,3.33
2022-10-09T12:32:55.413Z,2.88
2022-10-09T12:36:12.450Z,2.58
2022-10-09T12:39:23.745Z,2.40
2022-10-09T12:42:27.076Z,2.45
2022-10-09T12:45:31.850Z,2.42
2022-10-09T12:48:39.588Z,2.53
2022-10-09T12:51:41.804Z,3.22
2022-10-09T12:54:45.277Z,3.45
2022-10-09T12:57:47.782Z,3.15
2022-10-09T13:01:14.713Z,3.08
2022-10-09T13:04:33.054Z,3.13
2022-10-09T13:07:35.470Z,3.47
2022-10-09T13:10:37.666Z,4.25
2022-10-09T13:13:52.148Z,4.18
2022-10-09T13:16:55.000Z,4.95
2022-10-09T13:20:00.610Z,3.83
2022-10-09T13:23:05.812Z,5.20
2022-10-09T13:26:13.758Z,4.80
2022-10-09T13:29:15.918Z,4.97
2022-10-09T13:32:18.594Z,4.47
2022-10-09T13:35:20.895Z,4.60
2022-10-09T13:38:24.087Z,5.30
2022-10-09T13:41:26.303Z,5.15
2022-10-09T13:44:28.480Z,4.60
2022-10-09T13:47:30.792Z,4.97
2022-10-09T13:50:33.006Z,4.63
2022-10-09T13:53:35.475Z,4.70
2022-10-09T13:56:37.660Z,5.50
2022-10-09T13:59:39.895Z,4.30
2022-10-09T14:02:42.201Z,4.63
2022-10-09T14:05:45.148Z,3.45
2022-10-09T14:08:47.411Z,5.13
2022-10-09T14:11:49.581Z,3.50
2022-10-09T14:14:53.525Z,4.80
2022-10-09T14:17:55.692Z,4.43
2022-10-09T14:20:57.844Z,4.18
2022-10-09T14:24:02.815Z,4.72
2022-10-09T14:27:06.447Z,4.00
2022-10-09T14:30:09.406Z,3.70
2022-10-09T14:33:12.922Z,4.07
2022-10-09T14:36:19.175Z,4.25
2022-10-09T14:39:21.384Z,4.43
2022-10-09T14:42:23.522Z,3.88
2022-10-09T14:45:25.673Z,4.13
2022-10-09T14:48:27.794Z,3.90
2022-10-09T14:51:36.014Z,3.50
2022-10-09T14:54:38.898Z,4.05
2022-10-09T14:57:41.108Z,3.72
2022-10-09T15:00:47.612Z,3.97
2022-10-09T15:03:55.859Z,3.72
2022-10-09T15:06:58.099Z,3.75
2022-10-09T15:10:00.321Z,3.55
2022-10-09T15:13:02.455Z,3.38
2022-10-09T15:16:08.145Z,3.30
2022-10-09T15:19:13.960Z,3.45
2022-10-09T15:22:16.156Z,3.45
2022-10-09T15:25:18.315Z,3.38
2022-10-09T15:28:21.008Z,3.22
2022-10-09T15:31:37.252Z,3.42
2022-10-09T15:34:41.226Z,3.88
2022-10-09T15:40:54.365Z,3.30
2022-10-09T15:43:59.408Z,3.25
2022-10-09T15:47:01.561Z,3.30
2022-10-09T15:50:04.147Z,3.25
2022-10-09T15:53:11.087Z,3.78
2022-10-09T15:56:16.319Z,3.38
2022-10-09T15:59:25.842Z,3.28
2022-10-09T16:02:27.956Z,3.03
2022-10-09T16:05:30.303Z,3.42
2022-10-09T16:08:32.790Z,3.35
2022-10-09T16:11:34.987Z,3.38
2022-10-09T16:14:38.426Z,3.30
2022-10-09T16:17:40.618Z,3.10
2022-10-09T16:20:43.199Z,2.97
2022-10-09T16:23:46.153Z,3.80
2022-10-09T16:26:50.985Z,3.05
2022-10-09T16:29:53.078Z,2.83
2022-10-09T16:32:55.334Z,3.38
2022-10-09T16:36:11.363Z,3.05
2022-10-09T16:39:13.479Z,3.33
2022-10-09T16:42:16.872Z,3.63
2022-10-09T16:45:19.078Z,4.15
2022-10-09T16:48:21.387Z,4.50
2022-10-09T16:51:29.568Z,4.35
2022-10-09T16:54:31.757Z,24.48
2022-10-09T16:57:33.962Z,18.00
2022-10-09T17:00:36.194Z,21.35
2022-10-09T17:03:42.519Z,18.48
2022-10-09T17:06:45.726Z,13.50
2022-10-09T17:09:47.830Z,13.35
2022-10-09T17:12:50.200Z,12.40
2022-10-09T17:15:53.003Z,9.40
2022-10-09T17:18:55.595Z,11.93
2022-10-09T17:21:57.732Z,10.50
2022-10-09T17:24:59.948Z,8.20
2022-10-09T17:28:07.712Z,9.75
2022-10-09T17:31:14.331Z,10.02
2022-10-09T17:34:16.881Z,10.90
2022-10-09T17:37:18.991Z,9.73
2022-10-09T17:40:21.096Z,10.88
2022-10-09T17:43:23.207Z,7.43
2022-10-09T17:46:28.208Z,9.32
2022-10-09T17:49:30.382Z,8.57
2022-10-09T17:52:32.562Z,8.68
2022-10-09T17:55:38.628Z,7.47
2022-10-09T17:58:41.081Z,8.63
2022-10-09T18:01:43.396Z,7.28
2022-10-09T18:04:45.631Z,7.95
2022-10-09T18:07:48.167Z,9.18
2022-10-09T18:11:02.263Z,8.23
2022-10-09T18:14:04.479Z,7.18
2022-10-09T18:17:07.803Z,6.03
2022-10-09T18:20:11.213Z,7.85
2022-10-09T18:23:13.835Z,7.38
2022-10-09T18:26:19.566Z,7.22
2022-10-09T18:29:21.698Z,7.68
2022-10-09T18:32:23.794Z,7.38
2022-10-09T18:35:26.801Z,7.25
2022-10-09T18:38:28.918Z,8.18
2022-10-09T18:41:31.110Z,6.88
2022-10-09T18:44:40.202Z,6.60
2022-10-09T18:47:42.725Z,5.80
2022-10-09T18:50:45.297Z,6.13
2022-10-09T18:53:55.980Z,6.20
2022-10-09T18:56:58.371Z,6.93
2022-10-09T19:00:01.869Z,6.00
2022-10-09T19:03:04.333Z,6.65
2022-10-09T19:06:06.854Z,6.35
2022-10-09T19:09:08.961Z,5.07
2022-10-09T19:12:11.140Z,4.72
2022-10-09T19:15:13.233Z,5.75
2022-10-09T19:18:15.588Z,5.47
2022-10-09T19:21:17.642Z,5.85
2022-10-09T19:24:19.757Z,6.25
2022-10-09T19:27:26.344Z,5.53
2022-10-09T19:30:28.799Z,4.72
2022-10-09T19:33:31.232Z,5.07
2022-10-09T19:36:36.647Z,5.35
2022-10-09T19:39:38.926Z,5.22
2022-10-09T19:42:41.030Z,5.07
2022-10-09T19:45:43.462Z,4.75
2022-10-09T19:48:45.975Z,4.28
2022-10-09T19:51:49.438Z,3.80
2022-10-09T19:54:51.743Z,5.15
2022-10-09T19:57:53.872Z,4.57
2022-10-09T20:00:56.070Z,4.60
2022-10-09T20:04:00.859Z,4.28
2022-10-09T20:07:03.042Z,3.95
2022-10-09T20:10:05.551Z,3.97
2022-10-09T20:13:07.729Z,4.35
2022-10-09T20:16:12.973Z,4.53
2022-10-09T20:19:15.104Z,3.90
2022-10-09T20:22:17.457Z,4.40
2022-10-09T20:25:20.110Z,4.28
2022-10-09T20:28:22.498Z,4.03
2022-10-09T20:31:26.383Z,4.00
2022-10-09T20:34:28.595Z,3.80
2022-10-09T20:37:31.773Z,3.35
2022-10-09T20:40:34.288Z,3.90
2022-10-09T20:43:36.775Z,3.38
2022-10-09T20:46:40.178Z,4.28
2022-10-09T20:49:43.734Z,3.90
2022-10-09T20:52:45.948Z,4.28
2022-10-09T20:55:48.092Z,4.13
2022-10-09T20:58:50.370Z,3.88
2022-10-09T21:01:52.535Z,3.70
2022-10-09T21:05:00.879Z,3.65
2022-10-09T21:08:04.031Z,3.58
2022-10-09T21:11:08.872Z,4.07
2022-10-09T21:14:14.445Z,3.88
2022-10-09T21:17:16.625Z,3.85
2022-10-09T21:20:18.804Z,3.80
2022-10-09T21:23:20.945Z,3.05
2022-10-09T21:26:24.416Z,3.17
2022-10-09T21:29:27.201Z,4.03
2022-10-09T21:32:29.536Z,3.67
2022-10-09T21:35:31.731Z,3.63
2022-10-09T21:38:33.964Z,3.30
2022-10-09T21:41:37.244Z,3.55
2022-10-09T21:44:39.440Z,3.80
2022-10-09T21:47:56.259Z,3.47
2022-10-09T21:50:58.514Z,3.13
2022-10-09T21:54:00.655Z,3.70
2022-10-09T21:57:02.960Z,2.97
2022-10-09T22:00:06.271Z,3.35
2022-10-09T22:03:09.167Z,3.05
2022-10-09T22:06:18.444Z,3.50
2022-10-09T22:09:21.687Z,3.38
2022-10-09T22:12:23.912Z,3.17
2022-10-09T22:15:26.049Z,3.28
2022-10-09T22:18:28.161Z,3.10
2022-10-09T22:21:30.484Z,3.13
2022-10-09T22:24:32.623Z,3.15
2022-10-09T22:27:34.913Z,2.80
2022-10-09T22:30:37.086Z,3.10
2022-10-09T22:33:39.611Z,2.78
2022-10-09T22:36:42.053Z,3.30
2022-10-09T22:39:45.291Z,2.45
2022-10-09T22:42:47.752Z,3.00
2022-10-09T22:45:50.177Z,2.72
2022-10-09T22:48:53.102Z,2.65
2022-10-09T22:51:55.321Z,2.60
2022-10-09T22:54:57.524Z,2.80
2022-10-09T22:57:59.740Z,2.50
2022-10-09T23:01:08.884Z,2.58
2022-10-09T23:04:13.713Z,2.78
2022-10-09T23:07:15.856Z,2.78
2022-10-09T23:10:18.125Z,2.65
2022-10-09T23:13:21.774Z,2.55
2022-10-09T23:16:25.171Z,2.75
2022-10-09T23:19:27.363Z,3.25
2022-10-09T23:22:29.532Z,2.60
2022-10-09T23:25:31.750Z,2.38
2022-10-09T23:28:35.085Z,2.42
2022-10-09T23:31:38.357Z,2.33
2022-10-09T23:34:41.568Z,2.90
2022-10-09T23:37:43.686Z,2.50
2022-10-09T23:40:55.623Z,2.05
2022-10-09T23:43:57.886Z,2.92
2022-10-09T23:47:00.020Z,2.70
2022-10-09T23:50:02.299Z,2.25
2022-10-09T23:53:04.415Z,3.08
2022-10-09T23:56:25.372Z,2.72
2022-10-09T23:59:27.603Z,2.50
